Time;durP1;ratioP1;P1;durP2;ratioP2;P2;SDS_P1;SDS_P2;PMS_P1;PMS_P2;Temp;Humidity;BMP_temperature;BMP_pressure;BME280_temperature;BME280_humidity;BME280_pressure;Samples;Min_cycle;Max_cycle;Signal;HPM_P1;HPM_P2
2022/03/14 00:01:11;;;;;;;80.82;34.30;;;;;;;-2.61;55.63;96669.38;5066443;28;20387;-75
2022/03/14 00:03:55;;;;;;;80.38;33.80;;;;;;;-2.56;55.70;96668.34;5064758;28;20510;-74
2022/03/14 00:06:20;;;;;;;64.80;30.33;;;;;;;-2.70;55.83;96668.91;5066953;28;20098;-75
2022/03/14 00:08:46;;;;;;;67.28;26.38;;;;;;;-2.75;56.04;96669.09;5063853;28;20476;-75
2022/03/14 00:11:16;;;;;;;52.30;25.23;;;;;;;-2.88;56.14;96674.88;5065081;28;20029;-74
2022/03/14 00:13:46;;;;;;;55.47;24.60;;;;;;;-2.88;56.39;96677.50;5048036;28;20028;-75
2022/03/14 00:16:24;;;;;;;58.88;26.92;;;;;;;-2.91;56.57;96674.13;5063888;28;20029;-75
2022/03/14 00:18:51;;;;;;;47.67;22.80;;;;;;;-2.96;57.06;96684.81;5050215;28;20032;-75
2022/03/14 00:21:23;;;;;;;43.35;21.67;;;;;;;-2.95;56.50;96680.44;5046760;28;20052;-74
2022/03/14 00:23:50;;;;;;;49.30;22.95;;;;;;;-2.93;56.67;96683.84;5066363;28;20032;-75
2022/03/14 00:26:16;;;;;;;44.30;21.30;;;;;;;-2.91;56.13;96684.63;5065390;28;20419;-75
2022/03/14 00:28:42;;;;;;;45.35;21.42;;;;;;;-2.86;55.78;96680.91;5064016;28;20044;-74
2022/03/14 00:31:08;;;;;;;36.40;18.73;;;;;;;-2.92;55.59;96696.94;5065154;28;20078;-75
2022/03/14 00:33:33;;;;;;;37.13;18.08;;;;;;;-3.04;55.60;96692.16;5063609;28;20098;-75
2022/03/14 00:35:59;;;;;;;31.65;16.92;;;;;;;-3.08;56.31;96695.81;5065077;28;20040;-75
2022/03/14 00:38:25;;;;;;;38.35;18.20;;;;;;;-3.09;56.66;96691.50;5063326;28;20024;-75
2022/03/14 00:40:51;;;;;;;38.45;18.67;;;;;;;-3.09;56.30;96694.13;5066242;28;20428;-76
2022/03/14 00:43:16;;;;;;;41.88;18.50;;;;;;;-3.16;56.04;96702.22;5064821;28;20518;-74
2022/03/14 00:45:42;;;;;;;34.50;17.98;;;;;;;-3.16;55.56;96704.84;5065965;28;20028;-74
2022/03/14 00:48:08;;;;;;;36.90;17.85;;;;;;;-3.20;56.28;96705.88;5047355;28;20021;-75
2022/03/14 00:50:34;;;;;;;40.95;18.92;;;;;;;-3.20;56.28;96705.88;5065122;28;20021;-74
2022/03/14 00:52:59;;;;;;;37.45;18.70;;;;;;;-3.24;57.11;96706.94;5048012;28;20021;-74
2022/03/14 00:55:25;;;;;;;38.47;16.90;;;;;;;-3.26;56.51;96703.50;5064489;28;20510;-74
2022/03/14 00:57:50;;;;;;;36.10;17.00;;;;;;;-3.29;55.78;96704.47;5064666;28;20033;-74
2022/03/14 01:00:15;;;;;;;36.60;17.10;;;;;;;-3.30;56.16;96696.66;5062954;28;20036;-74
2022/03/14 01:02:41;;;;;;;27.17;14.75;;;;;;;-3.32;55.88;96707.22;5064787;28;20060;-74
2022/03/14 01:05:07;;;;;;;32.88;16.55;;;;;;;-3.33;57.13;96708.13;5063367;28;20039;-74
2022/03/14 01:07:34;;;;;;;32.10;16.60;;;;;;;-3.33;56.69;96707.28;5065511;28;20107;-74
2022/03/14 01:10:01;;;;;;;36.45;17.67;;;;;;;-3.31;56.38;96710.69;5065774;28;20089;-75
2022/03/14 01:12:26;;;;;;;33.75;15.70;;;;;;;-3.33;56.63;96705.50;5081795;28;20056;-76
2022/03/14 01:14:56;;;;;;;35.75;16.65;;;;;;;-3.37;56.88;96717.06;5068232;28;20061;-74
2022/03/14 01:17:21;;;;;;;36.10;16.92;;;;;;;-3.51;57.10;96712.31;5067678;28;20051;-75
2022/03/14 01:19:46;;;;;;;36.83;17.35;;;;;;;-3.54;57.28;96715.91;5068197;28;20029;-75
2022/03/14 01:22:12;;;;;;;37.88;18.58;;;;;;;-3.56;57.22;96714.28;5067993;28;20257;-75
2022/03/14 01:24:38;;;;;;;33.47;18.05;;;;;;;-3.56;57.51;96716.91;5069398;28;20028;-75
2022/03/14 01:27:07;;;;;;;41.90;20.40;;;;;;;-3.63;57.01;96722.34;5067449;28;20047;-75
2022/03/14 01:29:34;;;;;;;49.38;22.73;;;;;;;-3.62;57.37;96715.34;5068054;28;20032;-75
2022/03/14 01:32:01;;;;;;;55.67;23.17;;;;;;;-3.60;57.65;96731.88;5051318;28;20111;-75
2022/03/14 01:34:26;;;;;;;57.40;23.05;;;;;;;-3.56;57.55;96722.97;5066308;28;20055;-74
2022/03/14 01:36:52;;;;;;;52.45;23.92;;;;;;;-3.58;57.44;96729.22;5069570;28;20103;-75
2022/03/14 01:39:17;;;;;;;46.88;21.63;;;;;;;-3.58;57.16;96723.97;5067523;28;20472;-75
2022/03/14 01:41:43;;;;;;;44.80;19.73;;;;;;;-3.58;57.27;96721.34;5067645;28;20475;-74
2022/03/14 01:44:08;;;;;;;42.88;19.45;;;;;;;-3.54;57.13;96725.53;5067934;28;20032;-74
2022/03/14 01:46:34;;;;;;;48.75;21.38;;;;;;;-3.57;57.04;96726.53;5067015;28;20429;-74
2022/03/14 01:49:00;;;;;;;49.42;21.80;;;;;;;-3.56;57.20;96725.59;5067523;28;20112;-75
2022/03/14 01:51:25;;;;;;;55.25;25.00;;;;;;;-3.57;57.34;96725.66;5067242;28;20031;-74
2022/03/14 01:53:51;;;;;;;47.38;22.80;;;;;;;-3.58;57.38;96731.84;5068934;28;20035;-75
2022/03/14 01:56:16;;;;;;;61.30;23.95;;;;;;;-3.63;57.93;96740.72;5048954;28;20037;-75
2022/03/14 01:58:42;;;;;;;54.08;22.73;;;;;;;-3.58;57.53;96735.31;5067619;28;20468;-74
2022/03/14 02:01:07;;;;;;;44.53;21.58;;;;;;;-3.51;57.39;96743.78;5066001;28;20020;-75
2022/03/14 02:03:33;;;;;;;40.70;20.63;;;;;;;-3.52;57.24;96745.56;5067300;28;20426;-74
2022/03/14 02:05:58;;;;;;;42.38;19.63;;;;;;;-3.51;56.73;96741.16;5050464;28;20056;-75
2022/03/14 02:08:24;;;;;;;35.88;17.30;;;;;;;-3.57;56.79;96744.03;5067122;28;20039;-74
2022/03/14 02:10:49;;;;;;;34.65;17.60;;;;;;;-3.68;57.19;96739.19;5067542;28;20075;-75
2022/03/14 02:13:15;;;;;;;33.60;16.90;;;;;;;-3.74;57.61;96748.97;5048872;28;20062;-74
2022/03/14 02:15:40;;;;;;;32.58;16.23;;;;;;;-3.76;57.44;96768.31;5067334;28;20032;-74
2022/03/14 02:18:06;;;;;;;26.30;14.05;;;;;;;-3.75;56.73;96751.66;5065487;28;20024;-74
2022/03/14 02:20:32;;;;;;;27.60;14.00;;;;;;;-3.79;56.82;96752.69;5050103;28;20043;-74
2022/03/14 02:22:57;;;;;;;26.90;13.45;;;;;;;-3.87;56.84;96755.59;5049117;28;20024;-75
2022/03/14 02:25:23;;;;;;;27.85;13.82;;;;;;;-3.90;57.61;96764.41;5067597;28;20494;-74
2022/03/14 02:27:48;;;;;;;28.08;13.88;;;;;;;-3.94;58.31;96770.69;5068059;28;20024;-75
2022/03/14 02:30:14;;;;;;;34.60;14.93;;;;;;;-4.00;58.27;96776.16;5065277;28;20479;-73
2022/03/14 02:32:41;;;;;;;25.65;13.70;;;;;;;-4.06;57.47;96778.97;5068156;28;20047;-75
2022/03/14 02:35:10;;;;;;;25.70;13.68;;;;;;;-4.09;57.85;96779.94;5064909;28;20025;-75
2022/03/14 02:37:36;;;;;;;30.35;14.38;;;;;;;-4.19;57.55;96781.16;5066610;28;20029;-75
2022/03/14 02:40:01;;;;;;;27.15;13.80;;;;;;;-4.20;57.46;96785.53;5048811;28;20028;-75
2022/03/14 02:42:27;;;;;;;26.48;13.45;;;;;;;-4.23;57.67;96791.75;5067419;28;20025;-74
2022/03/14 02:44:52;;;;;;;26.95;12.80;;;;;;;-4.16;57.65;96794.16;5067377;28;20057;-74
2022/03/14 02:47:19;;;;;;;25.27;13.20;;;;;;;-4.13;57.17;96799.28;5066749;28;20025;-74
2022/03/14 02:49:44;;;;;;;26.23;14.15;;;;;;;-4.13;56.46;96796.69;5067731;28;20032;-74
2022/03/14 02:52:10;;;;;;;22.77;13.02;;;;;;;-4.21;57.65;96794.31;5064736;28;20025;-74
2022/03/14 02:54:35;;;;;;;32.28;15.32;;;;;;;-4.22;57.98;96803.06;5066222;28;20399;-74
2022/03/14 02:57:01;;;;;;;24.40;13.18;;;;;;;-4.22;58.23;96800.44;5064687;28;20035;-75
2022/03/14 02:59:27;;;;;;;26.48;13.05;;;;;;;-4.29;57.93;96806.81;5049331;28;20082;-74
2022/03/14 03:01:52;;;;;;;29.10;13.77;;;;;;;-4.27;58.26;96811.09;5066443;28;20020;-75
2022/03/14 03:04:18;;;;;;;23.80;13.15;;;;;;;-4.24;58.33;96810.97;5065725;28;20031;-74
2022/03/14 03:06:44;;;;;;;25.33;13.63;;;;;;;-4.27;58.36;96813.72;5049247;28;20024;-74
2022/03/14 03:09:10;;;;;;;25.90;13.85;;;;;;;-4.26;57.62;96818.06;5065955;28;20024;-74
2022/03/14 03:11:36;;;;;;;30.40;13.95;;;;;;;-4.25;57.60;96806.66;5082745;28;20032;-74
2022/03/14 03:14:01;;;;;;;27.83;15.65;;;;;;;-4.22;57.23;96813.53;5047645;28;20559;-74
2022/03/14 03:16:27;;;;;;;35.42;16.50;;;;;;;-4.19;57.32;96815.22;5065863;28;20025;-74
2022/03/14 03:18:52;;;;;;;29.52;14.77;;;;;;;-4.15;56.89;96820.31;5047630;28;20028;-75
2022/03/14 03:21:18;;;;;;;28.42;15.18;;;;;;;-4.12;56.93;96820.22;5049029;28;20379;-74
2022/03/14 03:23:43;;;;;;;32.00;14.45;;;;;;;-4.13;56.90;96817.63;5065052;28;20039;-74
2022/03/14 03:26:09;;;;;;;30.80;14.40;;;;;;;-4.27;56.47;96825.97;5064803;28;20036;-73
2022/03/14 03:28:37;;;;;;;30.10;15.15;;;;;;;-4.31;57.33;96825.22;5066783;28;20028;-75
2022/03/14 03:31:07;;;;;;;36.65;17.08;;;;;;;-4.34;57.75;96831.38;5064100;28;20032;-73
2022/03/14 03:33:33;;;;;;;34.78;19.27;;;;;;;-4.32;57.72;96835.75;5066773;28;20028;-74
2022/03/14 03:35:58;;;;;;;35.75;18.17;;;;;;;-4.37;57.73;96828.88;5063498;28;20029;-74
2022/03/14 03:38:24;;;;;;;42.72;21.38;;;;;;;-4.32;57.73;96833.94;5065863;28;20020;-74
2022/03/14 03:40:49;;;;;;;36.65;18.67;;;;;;;-4.32;57.59;96838.34;5064351;28;20119;-74
2022/03/14 03:43:15;;;;;;;37.28;18.48;;;;;;;-4.35;57.41;96834.91;5066455;28;20028;-74
2022/03/14 03:45:41;;;;;;;32.47;16.30;;;;;;;-4.33;57.65;96842.72;5066511;28;20060;-75
2022/03/14 03:48:06;;;;;;;33.53;18.02;;;;;;;-4.38;57.69;96842.88;5064079;28;20059;-74
2022/03/14 03:50:32;;;;;;;36.50;19.20;;;;;;;-4.38;57.30;96839.41;5065561;28;20406;-74
2022/03/14 03:52:57;;;;;;;39.95;18.02;;;;;;;-4.45;57.70;96841.38;5064774;28;20029;-74
2022/03/14 03:55:23;;;;;;;33.47;16.55;;;;;;;-4.51;57.97;96845.03;5065537;28;20025;-74
2022/03/14 03:57:48;;;;;;;30.77;15.55;;;;;;;-4.50;58.28;96856.38;5047120;28;20124;-75
2022/03/14 04:00:14;;;;;;;30.80;15.52;;;;;;;-4.51;58.28;96858.13;5066598;28;20031;-74
2022/03/14 04:02:42;;;;;;;32.55;15.93;;;;;;;-4.51;57.92;96859.88;5065920;28;20490;-74
2022/03/14 04:05:09;;;;;;;29.83;15.73;;;;;;;-4.58;58.45;96854.00;5065494;28;20025;-75
2022/03/14 04:07:35;;;;;;;38.28;15.90;;;;;;;-4.60;59.03;96863.66;5065361;28;20495;-74
2022/03/14 04:10:01;;;;;;;36.30;17.88;;;;;;;-4.59;58.38;96870.59;5046803;28;20108;-74
2022/03/14 04:12:26;;;;;;;39.03;19.38;;;;;;;-4.59;58.51;96881.94;5082316;28;20024;-75
2022/03/14 04:14:52;;;;;;;37.53;17.90;;;;;;;-4.56;58.46;96873.13;5063333;28;20052;-75
2022/03/14 04:17:19;;;;;;;32.30;15.48;;;;;;;-4.67;58.50;96876.09;5048643;28;20063;-75
2022/03/14 04:19:44;;;;;;;31.95;15.45;;;;;;;-4.74;58.60;96875.41;5047156;28;20467;-75
2022/03/14 04:22:11;;;;;;;33.10;15.52;;;;;;;-4.79;58.75;96874.72;5081103;28;20045;-74
2022/03/14 04:24:37;;;;;;;42.63;17.42;;;;;;;-4.80;59.06;96880.00;5066547;28;20068;-73
2022/03/14 04:27:03;;;;;;;33.47;17.25;;;;;;;-4.80;59.20;96886.06;5064688;28;20032;-74
2022/03/14 04:29:30;;;;;;;32.50;16.63;;;;;;;-4.82;59.09;96885.25;5065210;28;20017;-74
2022/03/14 04:31:55;;;;;;;30.25;15.73;;;;;;;-4.83;59.35;96883.53;5063161;28;20483;-74
2022/03/14 04:34:20;;;;;;;38.75;20.73;;;;;;;-4.82;59.91;96887.88;5065132;28;20023;-75
2022/03/14 04:36:50;;;;;;;32.65;16.88;;;;;;;-4.78;59.43;96896.50;5064931;28;20029;-74
2022/03/14 04:39:19;;;;;;;34.97;15.52;;;;;;;-4.76;58.94;96902.56;5065968;28;20060;-74
2022/03/14 04:41:44;;;;;;;33.90;14.65;;;;;;;-4.76;59.05;96906.03;5064682;28;20028;-75
2022/03/14 04:44:09;;;;;;;28.25;14.43;;;;;;;-4.73;57.97;96913.78;5063735;28;20078;-73
2022/03/14 04:46:35;;;;;;;27.40;12.70;;;;;;;-4.69;57.76;96911.91;5050576;28;20583;-74
2022/03/14 04:49:01;;;;;;;23.05;12.95;;;;;;;-4.65;57.79;96910.94;5050320;28;20119;-75
2022/03/14 04:51:27;;;;;;;25.30;13.07;;;;;;;-4.60;57.34;96918.66;5068785;28;20043;-74
2022/03/14 04:53:53;;;;;;;23.88;13.15;;;;;;;-4.63;57.42;96918.75;5068005;28;20044;-74
2022/03/14 04:56:18;;;;;;;33.38;14.05;;;;;;;-4.62;58.98;96917.84;5051968;28;20047;-74
2022/03/14 04:58:43;;;;;;;29.95;15.25;;;;;;;-4.57;58.77;96929.03;5050861;28;20453;-75
2022/03/14 05:01:09;;;;;;;30.25;15.52;;;;;;;-4.57;58.27;96933.41;5067716;28;20071;-73
2022/03/14 05:03:35;;;;;;;28.95;14.38;;;;;;;-4.54;57.97;96933.31;5069678;28;20446;-75
2022/03/14 05:06:00;;;;;;;31.48;15.82;;;;;;;-4.51;57.70;96943.69;5066662;28;20033;-75
2022/03/14 05:08:26;;;;;;;40.95;21.58;;;;;;;-4.50;57.90;96942.81;5068638;28;20435;-74
2022/03/14 05:10:51;;;;;;;39.47;18.17;;;;;;;-4.47;57.72;96942.72;5067655;28;20171;-74
2022/03/14 05:13:17;;;;;;;39.25;18.52;;;;;;;-4.35;57.70;96952.81;5069716;28;20295;-74
2022/03/14 05:15:43;;;;;;;35.65;17.23;;;;;;;-4.27;57.68;96956.97;5066585;28;20533;-74
2022/03/14 05:18:08;;;;;;;34.10;17.13;;;;;;;-4.18;56.81;96953.19;5069213;28;20025;-74
2022/03/14 05:20:36;;;;;;;35.17;17.17;;;;;;;-4.15;56.73;96960.97;5067643;28;20043;-74
2022/03/14 05:23:03;;;;;;;43.25;18.98;;;;;;;-4.06;56.83;96957.19;5066543;28;20044;-75
2022/03/14 05:25:29;;;;;;;36.35;17.65;;;;;;;-4.00;56.59;96964.88;5054052;28;20027;-75
2022/03/14 05:27:54;;;;;;;36.70;17.20;;;;;;;-3.91;56.68;96971.56;5067610;28;20012;-75
2022/03/14 05:30:19;;;;;;;39.85;17.85;;;;;;;-3.79;55.54;96967.69;5068112;28;20491;-75
2022/03/14 05:32:45;;;;;;;39.92;17.48;;;;;;;-3.64;55.60;96964.56;5066335;28;20093;-74
2022/03/14 05:35:11;;;;;;;31.25;16.83;;;;;;;-3.47;54.55;96981.50;5067679;28;20035;-73
2022/03/14 05:37:40;;;;;;;39.47;16.05;;;;;;;-3.38;54.83;96983.81;5067043;28;20503;-75
2022/03/14 05:40:07;;;;;;;33.42;15.82;;;;;;;-3.12;54.03;96982.06;5066736;28;20078;-80
2022/03/14 05:42:32;;;;;;;30.88;15.70;;;;;;;-2.98;53.64;96980.69;5067632;28;20036;-75
2022/03/14 05:44:58;;;;;;;41.90;18.25;;;;;;;-2.75;53.05;96993.03;5067263;28;20437;-75
2022/03/14 05:47:23;;;;;;;35.35;18.33;;;;;;;-2.57;52.47;96989.75;5067833;28;20025;-74
2022/03/14 05:49:49;;;;;;;31.83;17.05;;;;;;;-2.47;52.75;96996.41;5067360;28;20475;-75
2022/03/14 05:52:14;;;;;;;45.53;18.38;;;;;;;-2.32;52.51;96999.38;5068734;28;20017;-74
2022/03/14 05:54:40;;;;;;;36.38;17.80;;;;;;;-2.14;52.02;96996.03;5066178;28;20029;-74
2022/03/14 05:57:05;;;;;;;41.38;18.40;;;;;;;-1.99;51.58;96993.72;5066588;28;20103;-75
2022/03/14 05:59:31;;;;;;;33.38;18.42;;;;;;;-1.88;51.45;96995.91;5068139;28;20044;-74
2022/03/14 06:01:56;;;;;;;38.05;19.52;;;;;;;-1.69;51.35;96992.56;5049411;28;20047;-74
2022/03/14 06:04:23;;;;;;;46.33;24.08;;;;;;;-1.55;50.94;96995.47;5068852;28;20031;-75
2022/03/14 06:06:48;;;;;;;45.25;22.88;;;;;;;-1.38;50.39;96999.16;5065898;28;20499;-74
2022/03/14 06:09:14;;;;;;;42.08;20.00;;;;;;;-1.22;50.27;97002.00;5067321;28;20804;-74
2022/03/14 06:11:39;;;;;;;39.00;20.45;;;;;;;-0.97;49.55;97000.13;5066983;28;20024;-74
2022/03/14 06:14:05;;;;;;;40.17;19.65;;;;;;;-0.82;48.97;96996.81;5068067;28;20035;-74
2022/03/14 06:16:31;;;;;;;40.50;20.60;;;;;;;-0.66;48.07;96999.63;5066151;28;20036;-74
2022/03/14 06:18:56;;;;;;;42.38;20.25;;;;;;;-0.39;48.49;97012.47;5067571;28;20032;-74
2022/03/14 06:21:22;;;;;;;35.67;19.20;;;;;;;-0.02;48.21;97001.16;5067736;28;20059;-75
2022/03/14 06:23:47;;;;;;;39.92;19.85;;;;;;;0.21;46.78;97004.50;5065371;28;20032;-74
2022/03/14 06:26:14;;;;;;;41.03;20.65;;;;;;;0.46;46.77;97013.84;5068342;28;20028;-74
2022/03/14 06:28:40;;;;;;;34.00;18.77;;;;;;;0.72;45.80;97011.72;5066471;28;20111;-74
2022/03/14 06:31:05;;;;;;;41.50;19.35;;;;;;;0.92;45.46;97015.97;5066630;28;20024;-73
2022/03/14 06:33:31;;;;;;;31.85;17.77;;;;;;;1.15;44.25;97016.59;5065229;28;20035;-75
2022/03/14 06:35:56;;;;;;;30.25;17.00;;;;;;;1.34;44.36;97026.22;5067713;28;20518;-74
2022/03/14 06:38:21;;;;;;;28.88;17.25;;;;;;;1.58;43.77;97020.59;5049409;28;20032;-75
2022/03/14 06:40:48;;;;;;;30.13;16.52;;;;;;;1.70;43.07;97019.06;5066879;28;20494;-74
2022/03/14 06:43:14;;;;;;;26.55;14.30;;;;;;;1.88;43.41;97026.94;5067710;28;20037;-75
2022/03/14 06:45:41;;;;;;;26.40;14.77;;;;;;;1.99;43.18;97021.94;5066654;28;20029;-74
2022/03/14 06:48:06;;;;;;;24.17;13.43;;;;;;;2.18;42.15;97026.19;5066532;28;20039;-74
2022/03/14 06:50:35;;;;;;;25.77;13.65;;;;;;;2.24;41.97;97032.97;5081681;28;20103;-74
2022/03/14 06:53:01;;;;;;;23.15;13.70;;;;;;;2.19;42.16;97034.03;5066452;28;20016;-74
2022/03/14 06:55:26;;;;;;;25.63;13.00;;;;;;;2.15;41.66;97031.66;5048409;28;20510;-76
2022/03/14 06:57:52;;;;;;;20.92;11.93;;;;;;;2.33;41.41;97033.31;5066731;28;20150;-74
2022/03/14 07:00:18;;;;;;;22.58;12.95;;;;;;;2.41;41.40;97032.88;5065992;28;20475;-74
2022/03/14 07:02:43;;;;;;;25.38;13.40;;;;;;;2.53;41.82;97036.59;5064681;28;20025;-76
2022/03/14 07:05:20;;;;;;;27.05;13.93;;;;;;;2.59;41.68;97035.41;5049642;28;20418;-74
2022/03/14 07:07:46;;;;;;;26.85;15.15;;;;;;;2.74;41.25;97043.44;5066048;28;20039;-74
2022/03/14 07:10:13;;;;;;;23.08;13.48;;;;;;;2.87;41.10;97044.41;5066428;28;20098;-74
2022/03/14 07:12:46;;;;;;;28.60;14.20;;;;;;;2.89;41.34;97036.38;5066437;28;20021;-75
2022/03/14 07:15:20;;;;;;;24.52;14.60;;;;;;;3.06;41.51;97044.19;5066755;28;20523;-74
2022/03/14 07:17:46;;;;;;;23.13;13.30;;;;;;;3.21;40.98;97036.25;5066346;28;20403;-75
2022/03/14 07:20:11;;;;;;;22.80;13.60;;;;;;;3.29;40.35;97041.97;5065506;28;20476;-75
2022/03/14 07:22:55;;;;;;;24.45;13.48;;;;;;;3.50;40.41;97038.97;5067014;28;20461;-74
2022/03/14 07:25:26;;;;;;;22.60;12.55;;;;;;;3.73;39.97;97042.03;5064277;28;20043;-74
2022/03/14 07:27:56;;;;;;;23.15;13.05;;;;;;;3.71;39.38;97042.13;5048652;28;20502;-75
2022/03/14 07:30:22;;;;;;;22.50;13.40;;;;;;;3.33;40.34;97046.16;5082241;28;20036;-75
2022/03/14 07:32:48;;;;;;;23.02;12.73;;;;;;;3.37;40.48;97043.31;5081214;28;20399;-75
2022/03/14 07:35:13;;;;;;;23.13;13.27;;;;;;;3.50;39.67;97046.94;5049008;28;20560;-74
2022/03/14 07:37:39;;;;;;;25.27;14.02;;;;;;;3.77;40.23;97048.84;5047191;28;20032;-74
2022/03/14 07:40:06;;;;;;;26.60;14.38;;;;;;;3.95;39.07;97049.50;5065775;28;20020;-73
2022/03/14 07:42:32;;;;;;;23.80;14.38;;;;;;;3.84;38.96;97046.66;5064010;28;20024;-74
2022/03/14 07:44:57;;;;;;;29.52;16.73;;;;;;;3.93;39.19;97050.56;5065225;28;20016;-75
2022/03/14 07:47:24;;;;;;;30.77;14.38;;;;;;;4.07;38.92;97049.69;5064350;28;20322;-75
2022/03/14 07:49:49;;;;;;;25.65;14.75;;;;;;;4.14;38.63;97050.16;5048106;28;20028;-74
2022/03/14 07:52:15;;;;;;;24.08;15.00;;;;;;;4.19;37.81;97043.59;5067062;28;20020;-74
2022/03/14 07:54:40;;;;;;;28.73;15.15;;;;;;;4.33;37.70;97053.38;5064913;28;20024;-74
2022/03/14 07:57:05;;;;;;;26.75;15.25;;;;;;;4.38;37.84;97046.91;5066918;28;20021;-73
2022/03/14 07:59:31;;;;;;;27.42;15.02;;;;;;;4.47;36.91;97042.78;5064703;28;20055;-77
2022/03/14 08:01:56;;;;;;;26.55;15.57;;;;;;;4.41;37.47;97046.69;5066577;28;20021;-74
2022/03/14 08:04:23;;;;;;;27.52;14.85;;;;;;;4.58;37.72;97046.47;5064044;28;20269;-76
2022/03/14 08:06:49;;;;;;;25.60;15.27;;;;;;;4.62;37.74;97038.28;5064936;28;20029;-74
2022/03/14 08:09:15;;;;;;;23.63;15.13;;;;;;;4.73;36.88;97046.41;5066352;28;20029;-75
2022/03/14 08:11:41;;;;;;;26.02;14.70;;;;;;;4.46;37.93;97044.59;5063855;28;20025;-74
2022/03/14 08:14:07;;;;;;;26.30;13.73;;;;;;;4.53;37.27;97051.22;5066655;28;20025;-74
2022/03/14 08:16:32;;;;;;;27.38;14.35;;;;;;;4.63;37.13;97051.47;5063343;28;20032;-74
2022/03/14 08:18:57;;;;;;;26.52;14.07;;;;;;;4.73;36.76;97045.56;5066532;28;20059;-79
2022/03/14 08:21:23;;;;;;;24.10;14.57;;;;;;;4.95;36.77;97037.88;5066617;28;20461;-78
2022/03/14 08:23:49;;;;;;;27.67;15.40;;;;;;;5.13;36.17;97042.91;5052432;28;20024;-76
2022/03/14 08:26:15;;;;;;;27.65;15.20;;;;;;;5.23;35.95;97051.13;5051769;28;20024;-75
2022/03/14 08:28:42;;;;;;;28.77;15.23;;;;;;;5.34;34.33;97042.41;5068280;28;20078;-75
2022/03/14 08:31:08;;;;;;;24.23;12.90;;;;;;;5.32;35.18;97044.31;5069387;28;20471;-79
2022/03/14 08:33:34;;;;;;;28.30;14.63;;;;;;;4.79;36.38;97045.16;5083998;28;20036;-77
2022/03/14 08:36:01;;;;;;;22.20;13.98;;;;;;;5.05;36.87;97046.09;5086155;28;20524;-78
2022/03/14 08:38:27;;;;;;;24.25;14.07;;;;;;;5.13;36.56;97047.38;5051273;28;20081;-78
2022/03/14 08:40:52;;;;;;;25.60;14.20;;;;;;;5.24;36.60;97034.22;5052326;28;20032;-78
2022/03/14 08:43:18;;;;;;;25.00;14.45;;;;;;;5.35;37.53;97038.81;5051184;28;20028;-77
2022/03/14 08:45:44;;;;;;;24.65;13.30;;;;;;;5.52;35.72;97036.78;5068297;28;20027;-77
2022/03/14 08:48:13;;;;;;;23.83;13.98;;;;;;;5.63;35.69;97041.38;5052106;28;20116;-77
2022/03/14 08:50:40;;;;;;;25.38;15.30;;;;;;;5.60;36.63;97044.25;5068634;28;20406;-77
2022/03/14 08:53:06;;;;;;;32.47;15.70;;;;;;;5.61;36.71;97043.31;5052621;28;20025;-77
2022/03/14 08:55:31;;;;;;;27.98;15.60;;;;;;;5.76;35.57;97041.38;5067044;28;20035;-77
2022/03/14 08:57:57;;;;;;;23.02;14.07;;;;;;;5.73;35.43;97036.25;5068881;28;20427;-77
2022/03/14 09:00:24;;;;;;;30.45;15.25;;;;;;;5.86;35.82;97044.25;5067110;28;20052;-78
2022/03/14 09:02:50;;;;;;;25.88;14.32;;;;;;;5.92;35.07;97044.69;5052066;28;20217;-78
2022/03/14 09:05:16;;;;;;;29.92;15.18;;;;;;;5.65;35.08;97031.47;5051185;28;20031;-78
2022/03/14 09:07:41;;;;;;;27.67;14.80;;;;;;;5.68;36.39;97037.44;5069226;28;20071;-78
2022/03/14 09:10:08;;;;;;;24.30;13.02;;;;;;;5.84;35.46;97028.38;5051472;28;20024;-78
2022/03/14 09:12:35;;;;;;;27.63;13.90;;;;;;;5.82;34.37;97028.50;5067259;28;20033;-77
2022/03/14 09:15:01;;;;;;;23.10;12.80;;;;;;;5.97;33.48;97020.38;5052232;28;20089;-78
2022/03/14 09:17:28;;;;;;;18.63;12.38;;;;;;;6.02;33.79;97025.38;5068178;28;20031;-78
2022/03/14 09:19:54;;;;;;;31.70;13.98;;;;;;;5.94;33.52;97024.13;5084044;28;20515;-77
2022/03/14 09:22:19;;;;;;;21.73;12.98;;;;;;;6.02;33.34;97028.03;5068303;28;20518;-78
2022/03/14 09:24:47;;;;;;;22.85;12.73;;;;;;;6.08;33.90;97026.81;5051649;28;20089;-78
2022/03/14 09:27:13;;;;;;;23.35;14.13;;;;;;;6.17;33.29;97016.31;5052074;28;20388;-77
2022/03/14 09:29:38;;;;;;;22.83;13.20;;;;;;;6.26;33.46;97017.47;5050717;28;20513;-78
2022/03/14 09:32:04;;;;;;;21.30;12.98;;;;;;;6.22;33.50;97008.00;5050576;28;20074;-78
2022/03/14 09:34:31;;;;;;;20.98;13.13;;;;;;;6.29;33.83;97009.25;5049340;28;20028;-77
2022/03/14 09:36:57;;;;;;;22.17;12.23;;;;;;;6.36;31.74;97008.81;5068212;28;20024;-78
2022/03/14 09:39:22;;;;;;;17.88;11.18;;;;;;;6.46;31.67;97003.66;5066296;28;20036;-78
2022/03/14 09:41:49;;;;;;;16.33;9.50;;;;;;;6.43;31.01;97013.56;5051392;28;20025;-78
2022/03/14 09:44:15;;;;;;;16.80;9.75;;;;;;;6.48;31.13;97021.22;5050291;28;20048;-80
2022/03/14 09:46:40;;;;;;;12.25;8.18;;;;;;;6.57;31.07;97006.41;5050484;28;20028;-78
2022/03/14 09:49:09;;;;;;;12.80;7.63;;;;;;;6.57;30.04;97011.72;5050678;28;20032;-76
2022/03/14 09:51:39;;;;;;;10.43;5.93;;;;;;;6.45;30.86;97007.31;5049999;28;20016;-73
2022/03/14 09:54:14;;;;;;;12.02;6.40;;;;;;;6.47;31.15;97000.88;5067541;28;20040;-73
2022/03/14 09:56:41;;;;;;;14.43;7.00;;;;;;;6.25;30.51;97004.25;5049434;28;20032;-77
2022/03/14 09:59:08;;;;;;;11.80;7.80;;;;;;;6.19;34.84;97008.19;5067431;28;20031;-80
2022/03/14 10:01:35;;;;;;;10.65;7.22;;;;;;;6.35;33.41;97004.44;5050056;28;20040;-81
2022/03/14 10:04:00;;;;;;;14.98;7.72;;;;;;;6.30;32.78;97005.63;5049907;28;20021;-81
2022/03/14 10:06:25;;;;;;;17.17;7.18;;;;;;;6.34;33.68;97005.41;5067393;28;20398;-76
2022/03/14 10:08:51;;;;;;;12.77;7.40;;;;;;;6.31;32.83;97001.16;5065809;28;20020;-81
2022/03/14 10:11:17;;;;;;;12.48;7.97;;;;;;;6.21;33.42;96989.47;5068610;28;20032;-80
2022/03/14 10:13:42;;;;;;;14.18;8.63;;;;;;;6.36;33.54;96993.69;5049019;28;20028;-81
2022/03/14 10:16:08;;;;;;;14.85;8.60;;;;;;;6.01;33.03;96995.22;5067234;28;20036;-79
2022/03/14 10:18:44;;;;;;;13.00;7.32;;;;;;;5.99;33.89;97007.81;5049061;28;20043;-80
2022/03/14 10:21:12;;;;;;;10.93;7.68;;;;;;;6.07;33.42;97001.97;5049558;28;20048;-81
2022/03/14 10:23:41;;;;;;;10.95;6.18;;;;;;;6.08;34.47;97001.00;5068566;28;20037;-79
2022/03/14 10:26:07;;;;;;;10.15;6.28;;;;;;;6.13;33.97;96998.00;5065742;28;20331;-81
2022/03/14 10:28:35;;;;;;;9.70;6.97;;;;;;;6.25;32.81;97001.59;5068778;28;20587;-81
2022/03/14 10:31:02;;;;;;;10.25;7.05;;;;;;;6.32;32.63;97004.69;5065174;28;20028;-76
2022/03/14 10:33:28;;;;;;;12.20;7.00;;;;;;;6.17;32.49;96995.00;5066844;28;20039;-74
2022/03/14 10:35:55;;;;;;;11.52;6.93;;;;;;;6.22;33.08;96997.34;5065356;28;20052;-74
2022/03/14 10:38:21;;;;;;;11.77;6.78;;;;;;;6.19;33.24;96997.56;5049836;28;20039;-76
2022/03/14 10:40:47;;;;;;;12.32;6.80;;;;;;;6.11;33.36;96998.09;5049883;28;20108;-78
2022/03/14 10:43:26;;;;;;;10.25;6.47;;;;;;;6.19;32.92;97005.53;5048377;28;20122;-77
2022/03/14 10:45:55;;;;;;;12.43;6.93;;;;;;;6.12;32.18;96988.31;5050576;28;20475;-82
2022/03/14 10:48:43;;;;;;;13.13;7.38;;;;;;;6.01;32.05;96981.91;5048678;28;20029;-82
2022/03/14 10:51:09;;;;;;;10.15;7.10;;;;;;;6.05;33.90;96980.75;5066972;28;20436;-82
2022/03/14 10:53:40;;;;;;;11.43;7.22;;;;;;;6.14;34.12;96981.06;5049156;28;20036;-82
2022/03/14 10:56:05;;;;;;;10.35;6.78;;;;;;;6.30;33.04;96980.81;5049150;28;20518;-82
2022/03/14 10:58:33;;;;;;;8.45;6.57;;;;;;;6.34;32.96;96978.75;5066193;28;20020;-83
2022/03/14 11:01:09;;;;;;;8.98;6.05;;;;;;;6.36;32.31;96976.81;5048548;28;20028;-82
2022/03/14 11:03:36;;;;;;;12.20;6.50;;;;;;;6.34;32.14;96976.09;5066644;28;20361;-81
2022/03/14 11:06:06;;;;;;;11.35;6.80;;;;;;;6.26;32.50;96979.31;5065271;28;20020;-83
2022/03/14 11:08:45;;;;;;;9.88;6.43;;;;;;;6.23;32.19;96982.19;5065658;28;20074;-82
2022/03/14 11:11:14;;;;;;;10.80;6.78;;;;;;;6.33;33.70;96980.59;5066106;28;20099;-82
2022/03/14 11:13:40;;;;;;;11.00;6.63;;;;;;;6.32;33.54;96967.38;5048591;28;20028;-82
2022/03/14 11:16:10;;;;;;;15.35;7.40;;;;;;;6.25;32.82;96974.97;5050037;28;20167;-82
2022/03/14 11:18:37;;;;;;;12.30;6.90;;;;;;;6.13;33.35;96960.69;5064239;28;20044;-82